createdAt,value
2019-03-15T13:40:09.546Z,6.50
2019-03-15T13:41:09.539Z,6.40
2019-03-15T13:42:09.527Z,4.80
2019-03-15T13:43:09.524Z,6.00
2019-03-15T13:44:09.502Z,7.80
2019-03-15T13:45:09.520Z,6.90
2019-03-15T13:46:09.498Z,5.80
2019-03-15T13:47:09.541Z,5.90
2019-03-15T13:48:09.497Z,5.50
2019-03-15T13:49:09.478Z,6.70
2019-03-15T13:50:09.465Z,7.70
2019-03-15T13:51:09.454Z,9.20
2019-03-15T13:52:09.455Z,10.10
2019-03-15T13:53:09.436Z,8.30
2019-03-15T13:54:09.455Z,5.00
2019-03-15T13:55:09.452Z,4.30
2019-03-15T13:56:09.446Z,4.60
2019-03-15T13:57:20.619Z,4.70
2019-03-15T13:58:09.434Z,3.70
2019-03-15T13:59:09.413Z,4.40
2019-03-15T14:00:09.424Z,4.60
2019-03-15T14:01:09.429Z,4.90
2019-03-15T14:02:09.417Z,5.20
2019-03-15T14:03:09.450Z,5.50
2019-03-15T14:04:09.402Z,5.30
2019-03-15T14:05:09.426Z,5.70
2019-03-15T14:06:09.389Z,5.70
2019-03-15T14:07:09.400Z,5.10
2019-03-15T14:08:12.070Z,5.30
2019-03-15T14:09:09.394Z,5.10
2019-03-15T14:10:09.394Z,5.30
2019-03-15T14:11:09.376Z,4.90
2019-03-15T14:12:09.388Z,5.30
2019-03-15T14:13:11.825Z,6.10
2019-03-15T14:14:09.385Z,5.90
2019-03-15T14:15:09.363Z,5.50
2019-03-15T14:16:09.361Z,5.30
2019-03-15T14:17:09.359Z,6.50
2019-03-15T14:18:09.334Z,6.80
2019-03-15T14:19:09.357Z,6.10
2019-03-15T14:20:09.347Z,5.70
2019-03-15T14:21:09.337Z,5.10
2019-03-15T14:22:09.335Z,6.30
2019-03-15T14:23:09.335Z,6.20
2019-03-15T14:24:09.348Z,6.20
2019-03-15T14:25:09.332Z,6.10
2019-03-15T14:26:09.348Z,6.50
2019-03-15T14:27:09.326Z,6.30
2019-03-15T14:28:09.333Z,6.40
2019-03-15T14:29:09.316Z,7.20
2019-03-15T14:30:09.340Z,6.80
2019-03-15T14:31:09.301Z,7.00
2019-03-15T14:32:09.324Z,6.40
2019-03-15T14:33:09.301Z,7.10
2019-03-15T14:34:09.321Z,7.50
2019-03-15T14:35:09.323Z,8.10
2019-03-15T14:36:09.337Z,8.70
2019-03-15T14:37:10.417Z,7.30
2019-03-15T14:38:09.483Z,8.70
2019-03-15T14:39:09.365Z,7.70
2019-03-15T14:40:09.414Z,7.60
2019-03-15T14:41:09.324Z,7.30
2019-03-15T14:42:09.344Z,8.30
2019-03-15T14:43:09.287Z,8.70
2019-03-15T14:44:09.474Z,7.80
2019-03-15T14:45:09.454Z,7.70
2019-03-15T14:46:12.069Z,8.60
2019-03-15T14:47:09.273Z,8.70
2019-03-15T14:48:09.258Z,9.10
2019-03-15T14:49:09.250Z,9.30
2019-03-15T14:50:09.300Z,9.00
2019-03-15T14:51:09.271Z,11.30
2019-03-15T14:52:09.246Z,10.20
2019-03-15T14:53:09.256Z,9.40
2019-03-15T14:54:09.287Z,9.10
2019-03-15T14:55:09.311Z,9.00
2019-03-15T14:56:09.286Z,10.50
2019-03-15T14:57:09.245Z,12.20
2019-03-15T14:58:09.249Z,12.40
2019-03-15T14:59:09.251Z,14.80
2019-03-15T15:00:11.089Z,13.90
2019-03-15T15:01:09.282Z,11.20
2019-03-15T15:02:09.219Z,11.00
2019-03-15T15:03:09.234Z,10.00
2019-03-15T15:04:09.233Z,11.00
2019-03-15T15:05:09.235Z,12.00
2019-03-15T15:06:09.233Z,10.50
2019-03-15T15:07:09.229Z,9.10
2019-03-15T15:08:09.248Z,8.70
2019-03-15T15:09:09.207Z,9.40
2019-03-15T15:10:09.195Z,9.40
2019-03-15T15:11:09.198Z,9.40
2019-03-15T15:12:09.250Z,9.40
2019-03-15T15:13:09.205Z,9.40
2019-03-15T15:14:09.239Z,10.80
2019-03-15T15:15:09.176Z,9.30
2019-03-15T15:16:09.183Z,10.50
2019-03-15T15:17:09.182Z,10.80
2019-03-15T15:18:09.216Z,13.30
2019-03-15T15:19:09.185Z,13.30
2019-03-15T15:20:09.188Z,13.10
2019-03-15T15:21:09.186Z,10.20
2019-03-15T15:22:09.176Z,9.80
2019-03-15T15:23:09.180Z,8.60
2019-03-15T15:24:11.003Z,9.70
2019-03-15T15:25:09.170Z,8.70
2019-03-15T15:26:09.167Z,7.80
2019-03-15T15:27:09.172Z,9.10
2019-03-15T15:28:09.149Z,8.40
2019-03-15T15:29:09.189Z,9.20
2019-03-15T15:30:09.344Z,7.90
2019-03-15T15:31:09.141Z,8.40
2019-03-15T15:32:09.145Z,8.60
2019-03-15T15:33:09.191Z,8.60
2019-03-15T15:34:09.127Z,12.00
2019-03-15T15:35:09.134Z,12.10
2019-03-15T15:36:09.137Z,12.10
2019-03-15T15:37:09.129Z,13.40
2019-03-15T15:38:09.138Z,13.10
2019-03-15T15:39:09.212Z,13.00
2019-03-15T15:40:09.123Z,13.00
2019-03-15T15:41:09.130Z,13.90
2019-03-15T15:42:09.118Z,10.80
2019-03-15T15:43:09.133Z,11.50
2019-03-15T15:44:09.103Z,12.40
2019-03-15T15:45:09.097Z,11.30
2019-03-15T15:46:09.119Z,9.70
2019-03-15T15:47:09.093Z,8.30
2019-03-15T15:48:09.112Z,8.20
2019-03-15T15:49:09.105Z,7.10
2019-03-15T15:50:09.107Z,8.00
2019-03-15T15:51:09.093Z,7.60
2019-03-15T15:52:09.076Z,8.00
2019-03-15T15:53:11.006Z,7.20
2019-03-15T15:54:09.100Z,7.20
2019-03-15T15:55:09.090Z,7.90
2019-03-15T15:56:09.077Z,8.10
2019-03-15T15:57:09.086Z,7.60
2019-03-15T15:58:17.742Z,7.40
2019-03-15T15:59:09.092Z,6.80
2019-03-15T16:00:09.079Z,10.50
2019-03-15T16:01:09.081Z,13.10
2019-03-15T16:02:09.086Z,11.80
2019-03-15T16:03:09.079Z,11.50
2019-03-15T16:04:09.124Z,14.30
2019-03-15T16:05:09.060Z,11.70
2019-03-15T16:06:09.060Z,9.90
2019-03-15T16:07:09.060Z,9.50
2019-03-15T16:08:09.057Z,9.10
2019-03-15T16:09:09.070Z,7.90
2019-03-15T16:10:09.060Z,7.20
2019-03-15T16:11:09.048Z,7.40
2019-03-15T16:12:09.045Z,6.80
2019-03-15T16:13:17.253Z,7.40
2019-03-15T16:14:09.044Z,8.90
2019-03-15T16:15:09.017Z,11.20
2019-03-15T16:16:09.029Z,11.40
2019-03-15T16:17:09.035Z,9.60
2019-03-15T16:18:09.037Z,8.80
2019-03-15T16:19:09.041Z,8.80
2019-03-15T16:20:09.019Z,9.60
2019-03-15T16:21:09.028Z,10.40
2019-03-15T16:22:09.053Z,11.10
2019-03-15T16:23:09.007Z,11.10
2019-03-15T16:24:09.054Z,10.00
2019-03-15T16:25:09.021Z,9.20
2019-03-15T16:26:09.013Z,8.10
2019-03-15T16:27:09.013Z,7.90
2019-03-15T16:28:09.002Z,6.60
2019-03-15T16:29:08.996Z,6.80
2019-03-15T16:30:08.982Z,10.00
2019-03-15T16:31:08.991Z,9.50
2019-03-15T16:32:08.993Z,9.40
2019-03-15T16:33:08.989Z,8.90
2019-03-15T16:34:09.008Z,9.00
2019-03-15T16:35:09.020Z,8.30
2019-03-15T16:36:08.977Z,7.60
2019-03-15T16:37:08.974Z,6.70
2019-03-15T16:38:08.978Z,7.50
2019-03-15T16:39:08.959Z,10.60
2019-03-15T16:40:08.966Z,11.90
2019-03-15T16:41:08.959Z,10.10
2019-03-15T16:42:08.958Z,7.80
2019-03-15T16:43:08.942Z,6.60
2019-03-15T16:44:08.949Z,6.20
2019-03-15T16:45:08.963Z,5.80
2019-03-15T16:46:08.925Z,6.10
2019-03-15T16:47:08.983Z,5.70
2019-03-15T16:48:08.942Z,6.40
2019-03-15T16:49:08.929Z,6.90
2019-03-15T16:50:08.914Z,5.20
2019-03-15T16:51:19.039Z,4.50
2019-03-15T16:52:08.937Z,5.10
2019-03-15T16:53:08.940Z,5.20
2019-03-15T16:54:08.920Z,4.10
2019-03-15T16:55:08.933Z,4.70
2019-03-15T16:56:08.934Z,4.20
2019-03-15T16:57:08.899Z,4.30
2019-03-15T16:58:08.922Z,5.00
2019-03-15T16:59:08.916Z,4.60
2019-03-15T17:00:08.896Z,3.20
2019-03-15T17:01:08.907Z,3.10
2019-03-15T17:02:08.919Z,4.40
2019-03-15T17:03:08.909Z,5.00
2019-03-15T17:04:08.882Z,4.90
2019-03-15T17:05:08.897Z,4.00
2019-03-15T17:06:08.877Z,2.70
2019-03-15T17:07:08.883Z,1.90
2019-03-15T17:08:08.886Z,1.80
2019-03-15T17:09:08.862Z,1.90
2019-03-15T17:10:08.883Z,2.00
2019-03-15T17:11:08.855Z,1.70
2019-03-15T17:12:08.849Z,2.10
2019-03-15T17:13:08.876Z,2.80
2019-03-15T17:14:08.843Z,2.30
2019-03-15T17:15:08.857Z,2.00
2019-03-15T17:16:08.905Z,2.20
2019-03-15T17:17:08.883Z,2.60
2019-03-15T17:18:08.823Z,1.80
2019-03-15T17:19:08.846Z,1.90
2019-03-15T17:20:08.830Z,2.00
2019-03-15T17:21:08.849Z,2.00
2019-03-15T17:22:08.839Z,1.90
2019-03-15T17:23:08.831Z,2.10
2019-03-15T17:24:08.812Z,2.20
2019-03-15T17:25:08.822Z,2.00
2019-03-15T17:26:08.852Z,2.10
2019-03-15T17:27:08.867Z,2.20
2019-03-15T17:28:08.816Z,2.30
2019-03-15T17:29:08.822Z,2.20
2019-03-15T17:30:08.845Z,2.00
2019-03-15T17:31:10.121Z,2.40
2019-03-15T17:32:08.800Z,1.70
2019-03-15T17:33:08.842Z,1.70
2019-03-15T17:34:08.803Z,1.70
2019-03-15T17:35:08.863Z,1.50
2019-03-15T17:36:08.775Z,1.90
2019-03-15T17:37:08.791Z,1.60
2019-03-15T17:38:08.783Z,1.50
2019-03-15T17:39:08.789Z,1.50
2019-03-15T17:40:08.781Z,1.70
2019-03-15T17:41:08.777Z,1.60
2019-03-15T17:42:08.741Z,1.30
2019-03-15T17:43:08.767Z,1.50
2019-03-15T17:44:08.754Z,1.30
2019-03-15T17:45:08.802Z,1.30
2019-03-15T17:46:08.760Z,1.40
2019-03-15T17:47:08.790Z,1.50
2019-03-15T17:48:08.749Z,1.30
2019-03-15T17:49:08.729Z,1.40
2019-03-15T17:50:08.749Z,1.70
2019-03-15T17:51:08.768Z,1.50
2019-03-15T17:52:08.729Z,1.20
2019-03-15T17:53:08.725Z,1.10
2019-03-15T17:54:08.720Z,1.30
2019-03-15T17:55:08.707Z,1.10
2019-03-15T17:56:08.759Z,1.30
2019-03-15T17:57:08.693Z,1.20
2019-03-15T17:58:08.709Z,1.20
2019-03-15T17:59:12.566Z,1.10
2019-03-15T18:00:08.715Z,1.20
2019-03-15T18:01:08.733Z,1.20
2019-03-15T18:02:08.686Z,1.20
2019-03-15T18:03:20.204Z,1.40
2019-03-15T18:04:08.789Z,1.20
2019-03-15T18:05:08.671Z,1.30
2019-03-15T18:06:08.671Z,1.20
2019-03-15T18:07:08.679Z,1.30
2019-03-15T18:08:08.646Z,1.50
2019-03-15T18:09:08.667Z,1.30
2019-03-15T18:10:08.668Z,1.40
2019-03-15T18:11:08.638Z,1.50
2019-03-15T18:12:08.645Z,1.30
2019-03-15T18:13:08.655Z,1.30
2019-03-15T18:14:08.649Z,1.60
2019-03-15T18:15:08.654Z,1.40
2019-03-15T18:16:08.634Z,1.20
2019-03-15T18:17:08.665Z,1.30
2019-03-15T18:18:08.621Z,1.40
2019-03-15T18:19:08.665Z,1.30
2019-03-15T18:20:08.622Z,1.50
2019-03-15T18:21:08.599Z,1.30
2019-03-15T18:22:08.603Z,1.20
2019-03-15T18:23:08.617Z,1.50
2019-03-15T18:24:08.604Z,1.60
2019-03-15T18:25:08.587Z,2.20
2019-03-15T18:26:08.572Z,1.50
2019-03-15T18:27:08.584Z,1.60
2019-03-15T18:28:08.585Z,1.60
2019-03-15T18:29:08.564Z,1.60
2019-03-15T18:30:08.553Z,1.70
2019-03-15T18:31:08.569Z,1.80
2019-03-15T18:32:08.550Z,1.60
2019-03-15T18:33:08.549Z,1.80
2019-03-15T18:34:08.523Z,1.90
2019-03-15T18:35:08.517Z,1.90
2019-03-15T18:36:08.538Z,2.10
2019-03-15T18:37:08.511Z,2.80
2019-03-15T18:38:08.527Z,3.10
2019-03-15T18:39:08.510Z,2.70
2019-03-15T18:40:08.579Z,2.40
2019-03-15T18:41:08.502Z,3.00
2019-03-15T18:42:08.490Z,3.20
2019-03-15T18:43:08.495Z,3.10
2019-03-15T18:44:08.486Z,3.40
2019-03-15T18:45:08.493Z,3.50
2019-03-15T18:46:08.496Z,3.60
2019-03-15T18:47:08.443Z,4.90
2019-03-15T18:48:08.463Z,5.50
2019-03-15T18:49:08.436Z,5.10
2019-03-15T18:50:08.432Z,3.40
2019-03-15T18:51:08.427Z,2.70
2019-03-15T18:52:08.439Z,3.70
2019-03-15T18:53:08.438Z,3.50
2019-03-15T18:54:17.516Z,2.70
2019-03-15T18:55:08.416Z,2.80
2019-03-15T18:56:08.414Z,3.30
2019-03-15T18:57:08.392Z,3.30
2019-03-15T18:58:08.452Z,3.10
2019-03-15T18:59:08.521Z,3.10
2019-03-15T19:00:08.397Z,3.30
2019-03-15T19:01:08.388Z,3.60
2019-03-15T19:02:08.378Z,3.40
2019-03-15T19:03:08.376Z,3.60
2019-03-15T19:04:08.410Z,4.00
2019-03-15T19:05:08.368Z,3.90
2019-03-15T19:06:08.388Z,3.70
2019-03-15T19:07:08.382Z,3.80
2019-03-15T19:08:08.333Z,3.20
2019-03-15T19:09:08.353Z,3.70
2019-03-15T19:10:08.334Z,4.10
2019-03-15T19:11:08.331Z,4.20
2019-03-15T19:12:08.310Z,3.50
2019-03-15T19:13:08.324Z,3.80
2019-03-15T19:14:08.315Z,3.90
2019-03-15T19:15:08.314Z,4.40
2019-03-15T19:16:19.505Z,5.00
2019-03-15T19:17:08.301Z,6.80
2019-03-15T19:18:08.273Z,4.80
2019-03-15T19:19:08.337Z,3.40
2019-03-15T19:20:08.258Z,3.20
2019-03-15T19:21:08.309Z,3.20
2019-03-15T19:22:08.264Z,3.30
2019-03-15T19:23:08.302Z,3.20
2019-03-15T19:24:08.251Z,3.70
2019-03-15T19:25:08.246Z,3.50
2019-03-15T19:26:08.223Z,2.80
2019-03-15T19:27:08.217Z,2.80
2019-03-15T19:28:08.231Z,3.10
2019-03-15T19:29:08.272Z,3.30
2019-03-15T19:30:08.221Z,2.70
2019-03-15T19:31:08.219Z,2.80
2019-03-15T19:32:08.214Z,2.50
2019-03-15T19:33:08.219Z,2.40
2019-03-15T19:34:08.202Z,3.00
2019-03-15T19:35:08.191Z,2.80
2019-03-15T19:36:08.183Z,2.40
2019-03-15T19:37:08.174Z,2.40
2019-03-15T19:38:08.179Z,1.80
2019-03-15T19:39:08.174Z,2.40
2019-03-15T19:40:08.133Z,2.10
2019-03-15T19:41:08.155Z,2.30
2019-03-15T19:42:08.149Z,2.00
2019-03-15T19:43:08.128Z,1.90
2019-03-15T19:44:08.147Z,2.00
2019-03-15T19:45:08.172Z,2.20
2019-03-15T19:46:08.127Z,2.00
2019-03-15T19:47:08.127Z,2.00
2019-03-15T19:48:08.125Z,1.90
2019-03-15T19:49:08.140Z,1.90
2019-03-15T19:50:08.081Z,2.00
2019-03-15T19:51:08.085Z,2.00
2019-03-15T19:52:08.083Z,2.30
2019-03-15T19:53:08.072Z,2.40
2019-03-15T19:54:08.069Z,2.30
2019-03-15T19:55:08.072Z,1.90
2019-03-15T19:56:08.066Z,2.00
2019-03-15T19:57:08.043Z,2.10
2019-03-15T19:58:08.052Z,1.80
2019-03-15T19:59:08.036Z,2.20
2019-03-15T20:00:08.753Z,1.80
2019-03-15T20:01:08.029Z,1.60
2019-03-15T20:02:08.045Z,1.80
2019-03-15T20:03:08.032Z,1.70
2019-03-15T20:04:07.995Z,1.80
2019-03-15T20:05:08.001Z,2.20
2019-03-15T20:06:07.993Z,1.50
2019-03-15T20:07:07.991Z,1.80
2019-03-15T20:08:07.994Z,1.80
2019-03-15T20:09:07.984Z,1.80
2019-03-15T20:10:07.964Z,1.70
2019-03-15T20:11:07.981Z,1.90
2019-03-15T20:12:07.965Z,2.10
2019-03-15T20:13:07.948Z,2.00
2019-03-15T20:14:07.966Z,2.10
2019-03-15T20:15:07.963Z,1.70
2019-03-15T20:16:07.935Z,1.90
2019-03-15T20:17:07.975Z,1.80
2019-03-15T20:18:07.918Z,1.90
2019-03-15T20:19:07.967Z,1.70
2019-03-15T20:20:07.912Z,1.80
2019-03-15T20:21:07.948Z,1.90
2019-03-15T20:22:07.913Z,2.00
2019-03-15T20:23:07.920Z,2.10
2019-03-15T20:24:07.903Z,2.00
2019-03-15T20:25:07.895Z,1.80
2019-03-15T20:26:07.898Z,2.00
2019-03-15T20:27:07.891Z,2.10
2019-03-15T20:28:07.873Z,1.80
2019-03-15T20:29:07.875Z,1.70
2019-03-15T20:30:20.204Z,1.90
2019-03-15T20:31:07.844Z,1.80
2019-03-15T20:32:07.845Z,2.00
2019-03-15T20:33:07.855Z,1.90
2019-03-15T20:34:07.838Z,2.10
2019-03-15T20:35:07.843Z,2.50
2019-03-15T20:36:07.861Z,2.50
2019-03-15T20:37:07.834Z,3.30
2019-03-15T20:38:07.822Z,3.50
2019-03-15T20:39:07.808Z,3.30
2019-03-15T20:40:07.788Z,2.90
2019-03-15T20:41:07.804Z,3.30
2019-03-15T20:42:07.787Z,3.70
2019-03-15T20:43:07.770Z,5.20
2019-03-15T20:44:07.870Z,4.40
2019-03-15T20:45:07.764Z,3.30
2019-03-15T20:46:07.773Z,3.10
2019-03-15T20:47:07.811Z,3.20
2019-03-15T20:48:07.763Z,3.20
2019-03-15T20:49:07.759Z,3.10
2019-03-15T20:50:07.736Z,3.80
2019-03-15T20:51:07.745Z,3.40
2019-03-15T20:52:07.738Z,2.90
2019-03-15T20:53:12.540Z,2.50
2019-03-15T20:54:07.801Z,2.50
2019-03-15T20:55:07.711Z,2.60
2019-03-15T20:56:07.704Z,2.70
2019-03-15T20:57:07.721Z,2.40
2019-03-15T20:58:07.703Z,2.20
2019-03-15T20:59:07.674Z,2.30
2019-03-15T21:00:07.723Z,3.30
2019-03-15T21:01:07.684Z,5.00
2019-03-15T21:02:07.680Z,5.30
2019-03-15T21:03:07.730Z,5.80
2019-03-15T21:04:07.660Z,5.50
2019-03-15T21:05:08.184Z,3.80
2019-03-15T21:06:07.694Z,2.70
2019-03-15T21:07:07.646Z,2.80
2019-03-15T21:08:07.646Z,2.60
2019-03-15T21:09:07.625Z,2.50
2019-03-15T21:10:07.619Z,2.60
2019-03-15T21:11:07.628Z,2.60
2019-03-15T21:12:07.616Z,2.10
2019-03-15T21:13:07.601Z,2.80
2019-03-15T21:14:07.605Z,1.90
2019-03-15T21:15:07.700Z,2.40
2019-03-15T21:16:07.581Z,2.20
2019-03-15T21:17:07.603Z,2.30
2019-03-15T21:18:07.561Z,2.70
2019-03-15T21:19:07.568Z,2.30
2019-03-15T21:20:07.566Z,2.40
2019-03-15T21:21:07.706Z,2.30
2019-03-15T21:22:07.544Z,2.20
2019-03-15T21:23:07.545Z,2.40
2019-03-15T21:24:07.528Z,2.20
2019-03-15T21:25:07.540Z,2.30
2019-03-15T21:26:07.509Z,2.10
2019-03-15T21:27:07.509Z,2.60
2019-03-15T21:28:07.515Z,2.00
2019-03-15T21:29:07.496Z,2.10
2019-03-15T21:30:07.499Z,2.60
2019-03-15T21:31:07.497Z,2.50
2019-03-15T21:32:07.575Z,2.30
2019-03-15T21:33:07.479Z,2.40
2019-03-15T21:34:07.470Z,2.70
2019-03-15T21:35:07.452Z,2.30
2019-03-15T21:36:07.438Z,2.60
2019-03-15T21:37:07.458Z,2.50
2019-03-15T21:38:07.448Z,2.90
2019-03-15T21:39:07.426Z,2.60
2019-03-15T21:40:07.426Z,2.50
2019-03-15T21:41:07.420Z,2.40
2019-03-15T21:42:07.419Z,2.90
2019-03-15T21:43:07.390Z,2.80
2019-03-15T21:44:07.438Z,3.40
2019-03-15T21:45:07.379Z,3.20
2019-03-15T21:46:07.394Z,2.80
2019-03-15T21:47:07.367Z,3.30
2019-03-15T21:48:07.371Z,3.00
2019-03-15T21:49:07.364Z,3.10
2019-03-15T21:50:07.342Z,3.10
2019-03-15T21:51:07.358Z,3.40
2019-03-15T21:52:07.326Z,3.30
2019-03-15T21:53:07.343Z,3.10
2019-03-15T21:54:07.337Z,3.30
2019-03-15T21:55:07.316Z,3.20
2019-03-15T21:56:07.320Z,3.60
2019-03-15T21:57:07.307Z,4.10
2019-03-15T21:58:07.308Z,4.30
2019-03-15T21:59:07.284Z,4.50
2019-03-15T22:00:07.298Z,4.60
2019-03-15T22:01:07.283Z,5.30
2019-03-15T22:02:07.271Z,5.00
2019-03-15T22:03:07.271Z,5.30
2019-03-15T22:04:07.257Z,5.40
2019-03-15T22:05:07.231Z,5.30
2019-03-15T22:06:07.284Z,5.80
2019-03-15T22:07:07.246Z,5.60
2019-03-15T22:08:07.231Z,5.80
2019-03-15T22:09:07.216Z,6.20
2019-03-15T22:10:07.218Z,5.80
2019-03-15T22:11:20.193Z,6.00
2019-03-15T22:12:07.197Z,6.30
2019-03-15T22:13:07.187Z,7.00
2019-03-15T22:14:07.237Z,7.40
2019-03-15T22:15:07.563Z,7.90
2019-03-15T22:16:07.174Z,8.60
2019-03-15T22:17:07.159Z,8.20
2019-03-15T22:18:07.149Z,7.30
2019-03-15T22:19:07.146Z,6.90
2019-03-15T22:20:07.160Z,8.50
2019-03-15T22:21:07.145Z,7.10
2019-03-15T22:22:07.269Z,6.90
2019-03-15T22:23:07.132Z,6.60
2019-03-15T22:24:07.124Z,6.40
2019-03-15T22:25:07.112Z,6.40
2019-03-15T22:26:07.165Z,6.60
2019-03-15T22:27:07.112Z,6.80
2019-03-15T22:28:07.086Z,6.30
2019-03-15T22:29:07.100Z,6.80
2019-03-15T22:30:07.095Z,5.90
2019-03-15T22:31:16.604Z,5.50
2019-03-15T22:32:07.057Z,5.90
2019-03-15T22:33:07.078Z,5.90
2019-03-15T22:34:07.046Z,5.90
2019-03-15T22:35:07.062Z,7.80
2019-03-15T22:36:07.150Z,7.10
2019-03-15T22:37:07.045Z,6.70
2019-03-15T22:38:07.060Z,8.90
2019-03-15T22:39:07.028Z,9.80
2019-03-15T22:40:07.015Z,10.00
2019-03-15T22:41:07.046Z,9.70
2019-03-15T22:42:07.046Z,9.90
2019-03-15T22:43:07.001Z,10.10
2019-03-15T22:44:06.991Z,9.10
2019-03-15T22:45:06.983Z,9.90
2019-03-15T22:46:06.952Z,8.80
2019-03-15T22:47:07.017Z,9.10
2019-03-15T22:48:06.964Z,7.40
2019-03-15T22:49:06.960Z,6.60
2019-03-15T22:50:06.990Z,5.50
2019-03-15T22:51:06.979Z,5.50
2019-03-15T22:52:06.950Z,6.40
2019-03-15T22:53:06.939Z,6.80
2019-03-15T22:54:06.916Z,6.70
2019-03-15T22:55:06.909Z,6.70
2019-03-15T22:56:07.004Z,6.50
2019-03-15T22:57:06.891Z,5.80
2019-03-15T22:58:06.937Z,6.40
2019-03-15T22:59:06.896Z,5.50
2019-03-15T23:00:06.883Z,5.30
2019-03-15T23:01:06.868Z,5.90
2019-03-15T23:02:06.854Z,5.90
2019-03-15T23:03:06.887Z,5.70
2019-03-15T23:04:06.903Z,6.20
2019-03-15T23:05:06.840Z,6.00
2019-03-15T23:06:06.833Z,5.10
2019-03-15T23:07:06.815Z,5.50
2019-03-15T23:08:06.821Z,5.40
2019-03-15T23:09:06.830Z,6.50
2019-03-15T23:10:06.805Z,6.20
2019-03-15T23:11:06.814Z,6.00
2019-03-15T23:12:06.797Z,6.20
2019-03-15T23:13:06.808Z,5.70
2019-03-15T23:14:06.768Z,5.00
2019-03-15T23:15:06.768Z,5.20
2019-03-15T23:16:06.817Z,5.80
2019-03-15T23:17:06.782Z,6.50
2019-03-15T23:18:06.745Z,6.20
2019-03-15T23:19:06.735Z,5.50
2019-03-15T23:20:06.750Z,5.40
2019-03-15T23:21:06.738Z,4.70
2019-03-15T23:22:06.717Z,4.90
2019-03-15T23:23:06.718Z,4.70
2019-03-15T23:24:06.699Z,5.20
2019-03-15T23:25:06.715Z,5.30
2019-03-15T23:26:06.793Z,5.30
2019-03-15T23:27:06.700Z,5.40
2019-03-15T23:28:06.697Z,5.00
2019-03-15T23:29:06.724Z,5.30
2019-03-15T23:30:06.679Z,5.80
2019-03-15T23:31:06.685Z,5.40
2019-03-15T23:32:06.722Z,6.20
2019-03-15T23:33:06.638Z,5.90
2019-03-15T23:34:06.659Z,6.20
2019-03-15T23:35:06.641Z,6.50
2019-03-15T23:36:06.617Z,6.80
2019-03-15T23:37:06.624Z,6.80
2019-03-15T23:38:06.682Z,7.60
2019-03-15T23:39:06.607Z,7.60
2019-03-15T23:40:06.601Z,8.20
2019-03-15T23:41:06.605Z,8.60
2019-03-15T23:42:06.592Z,8.20
2019-03-15T23:43:06.579Z,8.10
2019-03-15T23:44:06.583Z,8.20
2019-03-15T23:45:06.621Z,8.90
2019-03-15T23:46:06.557Z,8.90
2019-03-15T23:47:06.553Z,9.20
2019-03-15T23:48:06.566Z,9.20
2019-03-15T23:49:06.557Z,9.40
2019-03-15T23:50:06.545Z,9.00
2019-03-15T23:51:06.531Z,8.40
2019-03-15T23:52:06.527Z,7.70
2019-03-15T23:53:06.560Z,8.90
2019-03-15T23:54:06.521Z,8.80
2019-03-15T23:55:06.518Z,8.80
2019-03-15T23:56:06.491Z,8.90
2019-03-15T23:57:06.485Z,8.50
2019-03-15T23:58:06.465Z,8.20
2019-03-15T23:59:06.491Z,8.20
